createdAt,value
2022-08-11T00:01:38.202Z,2.15
2022-08-11T00:04:34.454Z,1.90
2022-08-11T00:07:25.344Z,1.90
2022-08-11T00:10:15.035Z,2.10
2022-08-11T00:13:05.035Z,2.00
2022-08-11T00:15:53.512Z,1.67
2022-08-11T00:18:51.220Z,2.30
2022-08-11T00:22:05.101Z,2.10
2022-08-11T00:24:53.943Z,2.00
2022-08-11T00:27:46.915Z,2.25
2022-08-11T00:30:40.943Z,1.85
2022-08-11T00:33:45.481Z,1.90
2022-08-11T00:36:45.784Z,1.90
2022-08-11T00:39:36.686Z,2.05
2022-08-11T00:42:45.601Z,1.90
2022-08-11T00:45:42.514Z,1.80
2022-08-11T00:49:12.124Z,2.00
2022-08-11T00:52:06.425Z,2.35
2022-08-11T00:55:27.447Z,2.58
2022-08-11T00:58:23.544Z,1.58
2022-08-11T01:01:16.590Z,2.13
2022-08-11T01:04:12.690Z,1.60
2022-08-11T01:08:02.128Z,1.92
2022-08-11T01:10:52.894Z,2.08
2022-08-11T01:13:53.543Z,2.20
2022-08-11T01:17:09.811Z,2.55
2022-08-11T01:20:45.417Z,1.80
2022-08-11T01:24:02.549Z,1.85
2022-08-11T01:27:27.142Z,2.10
2022-08-11T01:30:56.636Z,2.22
2022-08-11T01:34:01.858Z,2.00
2022-08-11T01:37:35.509Z,2.30
2022-08-11T01:44:04.356Z,2.17
2022-08-11T01:47:38.468Z,2.30
2022-08-11T01:50:42.916Z,2.33
2022-08-11T01:53:47.445Z,2.50
2022-08-11T01:56:45.714Z,2.10
2022-08-11T01:59:37.578Z,1.88
2022-08-11T02:02:50.064Z,2.20
2022-08-11T02:05:43.070Z,2.30
2022-08-11T02:08:50.535Z,2.08
2022-08-11T02:11:41.570Z,2.10
2022-08-11T02:15:04.578Z,2.28
2022-08-11T02:18:05.277Z,2.33
2022-08-11T02:21:15.885Z,2.28
2022-08-11T02:24:17.229Z,2.10
2022-08-11T02:27:23.373Z,1.85
2022-08-11T02:30:15.263Z,2.20
2022-08-11T02:33:24.425Z,2.20
2022-08-11T02:36:23.633Z,2.05
2022-08-11T02:39:18.638Z,2.17
2022-08-11T02:42:32.488Z,2.13
2022-08-11T02:45:31.271Z,2.22
2022-08-11T02:49:14.918Z,2.40
2022-08-11T02:52:33.800Z,2.13
2022-08-11T02:55:58.439Z,2.13
2022-08-11T02:59:27.008Z,2.08
2022-08-11T03:02:25.281Z,2.55
2022-08-11T03:05:13.723Z,2.38
2022-08-11T03:08:39.799Z,2.13
2022-08-11T03:12:04.562Z,2.35
2022-08-11T03:15:30.677Z,2.22
2022-08-11T03:18:17.866Z,2.65
2022-08-11T03:21:12.756Z,2.20
2022-08-11T03:24:13.426Z,2.38
2022-08-11T03:27:07.494Z,2.40
2022-08-11T03:30:28.250Z,2.53
2022-08-11T03:33:49.224Z,2.53
2022-08-11T03:37:15.388Z,2.28
2022-08-11T03:40:38.676Z,2.40
2022-08-11T03:43:58.224Z,2.63
2022-08-11T03:47:01.439Z,2.50
2022-08-11T03:50:02.582Z,2.83
2022-08-11T03:53:42.153Z,2.70
2022-08-11T03:57:08.158Z,2.25
2022-08-11T04:00:13.498Z,2.28
2022-08-11T04:03:31.062Z,2.83
2022-08-11T04:06:44.148Z,2.63
2022-08-11T04:09:57.733Z,3.00
2022-08-11T04:13:12.932Z,2.50
2022-08-11T04:16:11.806Z,2.40
2022-08-11T04:19:08.986Z,2.42
2022-08-11T04:22:37.235Z,3.22
2022-08-11T04:25:29.993Z,3.10
2022-08-11T04:28:50.349Z,3.55
2022-08-11T04:31:51.657Z,3.20
2022-08-11T04:34:43.212Z,3.22
2022-08-11T04:37:51.333Z,3.00
2022-08-11T04:41:22.995Z,3.25
2022-08-11T04:44:31.808Z,3.40
2022-08-11T04:48:01.699Z,2.90
2022-08-11T04:51:31.401Z,3.13
2022-08-11T04:55:04.098Z,2.67
2022-08-11T04:58:31.230Z,2.80
2022-08-11T05:01:42.901Z,2.80
2022-08-11T05:05:14.007Z,3.00
2022-08-11T05:08:25.591Z,2.47
2022-08-11T05:11:18.453Z,3.15
2022-08-11T05:17:47.757Z,2.72
2022-08-11T05:21:05.251Z,3.08
2022-08-11T05:24:21.446Z,3.38
2022-08-11T05:27:30.905Z,2.90
2022-08-11T05:30:44.940Z,2.83
2022-08-11T05:34:01.279Z,2.63
2022-08-11T05:37:17.211Z,2.50
2022-08-11T05:40:32.432Z,3.00
2022-08-11T05:43:38.808Z,2.70
2022-08-11T05:47:12.102Z,2.67
2022-08-11T05:50:19.044Z,2.63
2022-08-11T05:53:45.982Z,2.80
2022-08-11T05:56:35.001Z,2.75
2022-08-11T05:59:24.419Z,2.08
2022-08-11T06:02:13.148Z,2.50
2022-08-11T06:05:02.252Z,3.08
2022-08-11T06:07:57.621Z,2.80
2022-08-11T06:10:46.961Z,2.85
2022-08-11T06:13:35.454Z,2.70
2022-08-11T06:16:28.422Z,2.40
2022-08-11T06:19:17.059Z,2.50
2022-08-11T06:22:06.427Z,2.35
2022-08-11T06:25:02.541Z,2.63
2022-08-11T06:28:01.136Z,2.97
2022-08-11T06:30:49.655Z,2.45
2022-08-11T06:34:01.196Z,2.28
2022-08-11T06:37:09.935Z,2.65
2022-08-11T06:40:15.137Z,2.78
2022-08-11T06:43:23.227Z,2.95
2022-08-11T06:46:12.845Z,2.83
2022-08-11T06:49:36.510Z,2.60
2022-08-11T06:52:47.951Z,2.85
2022-08-11T06:55:58.800Z,2.45
2022-08-11T06:59:08.486Z,2.75
2022-08-11T07:02:03.564Z,2.70
2022-08-11T07:05:01.326Z,2.55
2022-08-11T07:08:34.798Z,2.60
2022-08-11T07:12:03.061Z,3.08
2022-08-11T07:15:14.146Z,2.30
2022-08-11T07:18:25.582Z,2.40
2022-08-11T07:22:01.056Z,2.63
2022-08-11T07:25:18.357Z,2.30
2022-08-11T07:28:36.789Z,2.30
2022-08-11T07:31:42.067Z,2.30
2022-08-11T07:34:37.380Z,2.13
2022-08-11T07:37:26.167Z,2.45
2022-08-11T07:40:13.728Z,2.33
2022-08-11T07:43:02.020Z,2.40
2022-08-11T07:46:07.683Z,2.38
2022-08-11T07:49:14.849Z,2.60
2022-08-11T07:52:21.968Z,2.15
2022-08-11T07:55:17.757Z,2.20
2022-08-11T07:58:30.065Z,1.88
2022-08-11T08:01:43.851Z,2.15
2022-08-11T08:04:52.709Z,2.00
2022-08-11T08:07:58.775Z,1.85
2022-08-11T08:11:05.922Z,2.35
2022-08-11T08:14:13.468Z,2.10
2022-08-11T08:17:22.777Z,2.13
2022-08-11T08:20:13.824Z,1.75
2022-08-11T08:23:02.501Z,2.10
2022-08-11T08:25:52.612Z,1.80
2022-08-11T08:28:46.603Z,2.35
2022-08-11T08:31:36.999Z,2.22
2022-08-11T08:34:25.194Z,2.15
2022-08-11T08:37:16.186Z,2.42
2022-08-11T08:40:21.726Z,1.98
2022-08-11T08:43:15.179Z,2.58
2022-08-11T08:46:05.818Z,2.13
2022-08-11T08:48:56.579Z,2.10
2022-08-11T08:52:01.292Z,2.13
2022-08-11T08:55:02.344Z,2.25
2022-08-11T08:58:00.883Z,1.60
2022-08-11T09:00:51.934Z,1.98
2022-08-11T09:04:06.580Z,1.77
2022-08-11T09:06:52.360Z,1.83
2022-08-11T09:09:48.435Z,1.92
2022-08-11T09:12:39.242Z,1.60
2022-08-11T09:15:27.549Z,1.70
2022-08-11T09:18:18.634Z,1.63
2022-08-11T09:21:06.635Z,1.70
2022-08-11T09:24:19.316Z,1.65
2022-08-11T09:27:14.333Z,1.80
2022-08-11T09:30:02.267Z,2.10
2022-08-11T09:33:00.535Z,1.90
2022-08-11T09:35:51.786Z,1.70
2022-08-11T09:39:00.188Z,1.77
2022-08-11T09:42:01.458Z,2.47
2022-08-11T09:44:54.012Z,1.75
2022-08-11T09:47:43.752Z,1.98
2022-08-11T09:50:35.365Z,1.80
2022-08-11T09:53:36.642Z,1.60
2022-08-11T09:56:48.389Z,1.50
2022-08-11T09:59:36.655Z,1.30
2022-08-11T10:02:28.296Z,1.85
2022-08-11T10:08:28.764Z,1.45
2022-08-11T10:11:21.908Z,1.50
2022-08-11T10:14:34.661Z,1.40
2022-08-11T10:17:23.052Z,1.23
2022-08-11T10:20:16.741Z,1.45
2022-08-11T10:23:23.436Z,1.38
2022-08-11T10:26:32.010Z,1.10
2022-08-11T10:29:59.762Z,1.48
2022-08-11T10:33:08.900Z,1.35
2022-08-11T10:38:52.427Z,1.55
2022-08-11T10:42:06.517Z,1.38
2022-08-11T10:45:04.366Z,1.27
2022-08-11T10:47:54.780Z,1.30
2022-08-11T10:51:05.442Z,1.33
2022-08-11T10:54:12.867Z,1.33
2022-08-11T10:57:19.319Z,1.15
2022-08-11T11:00:15.303Z,1.20
2022-08-11T11:03:23.112Z,1.20
2022-08-11T11:06:28.049Z,1.63
2022-08-11T11:09:33.092Z,1.40
2022-08-11T11:12:54.097Z,1.55
2022-08-11T11:16:04.111Z,1.10
2022-08-11T11:19:00.956Z,1.20
2022-08-11T11:21:53.741Z,1.35
2022-08-11T11:24:55.304Z,1.38
2022-08-11T11:27:55.026Z,1.02
2022-08-11T11:31:23.317Z,1.10
2022-08-11T11:34:53.090Z,1.08
2022-08-11T11:38:03.866Z,1.20
2022-08-11T11:41:12.867Z,1.40
2022-08-11T11:44:01.778Z,1.40
2022-08-11T11:46:51.008Z,1.25
2022-08-11T11:49:41.147Z,0.95
2022-08-11T11:52:29.532Z,1.15
2022-08-11T11:55:18.308Z,1.10
2022-08-11T11:58:25.574Z,1.33
2022-08-11T12:01:20.948Z,1.33
2022-08-11T12:04:08.410Z,1.25
2022-08-11T12:07:19.901Z,1.70
2022-08-11T12:10:11.113Z,1.20
2022-08-11T12:13:21.342Z,1.02
2022-08-11T12:16:34.073Z,1.35
2022-08-11T12:19:35.615Z,1.15
2022-08-11T12:22:42.255Z,1.33
2022-08-11T12:25:59.531Z,1.45
2022-08-11T12:28:58.400Z,1.20
2022-08-11T12:31:46.591Z,1.10
2022-08-11T12:34:37.157Z,1.20
2022-08-11T12:37:34.017Z,1.00
2022-08-11T12:41:11.986Z,1.13
2022-08-11T12:44:09.809Z,1.30
2022-08-11T12:47:19.214Z,1.35
2022-08-11T12:50:36.690Z,1.00
2022-08-11T12:53:29.927Z,1.13
2022-08-11T12:56:37.949Z,1.25
2022-08-11T12:59:44.941Z,1.17
2022-08-11T13:02:51.470Z,1.40
2022-08-11T13:05:45.273Z,1.30
2022-08-11T13:08:38.402Z,1.23
2022-08-11T13:11:56.328Z,1.20
2022-08-11T13:14:44.976Z,1.08
2022-08-11T13:17:40.454Z,1.20
2022-08-11T13:20:32.918Z,1.20
2022-08-11T13:23:20.712Z,1.17
2022-08-11T13:26:08.937Z,1.05
2022-08-11T13:28:56.326Z,1.00
2022-08-11T13:31:43.727Z,0.90
2022-08-11T13:34:32.298Z,1.20
2022-08-11T13:38:17.617Z,1.10
2022-08-11T13:40:52.633Z,1.13
2022-08-11T13:43:46.241Z,1.10
2022-08-11T13:46:34.031Z,1.05
2022-08-11T13:49:23.271Z,1.30
2022-08-11T13:52:14.633Z,1.27
2022-08-11T13:55:02.487Z,1.13
2022-08-11T13:58:06.735Z,1.40
2022-08-11T14:01:16.775Z,1.20
2022-08-11T14:04:30.706Z,1.23
2022-08-11T14:07:24.479Z,1.33
2022-08-11T14:10:16.352Z,0.95
2022-08-11T14:16:26.747Z,1.27
2022-08-11T14:19:15.390Z,1.83
2022-08-11T14:22:08.421Z,1.10
2022-08-11T14:24:58.347Z,1.13
2022-08-11T14:28:34.081Z,1.30
2022-08-11T14:31:01.177Z,0.93
2022-08-11T14:34:00.140Z,0.98
2022-08-11T14:37:00.106Z,1.30
2022-08-11T14:40:03.277Z,1.17
2022-08-11T14:43:10.214Z,1.58
2022-08-11T14:46:16.729Z,0.88
2022-08-11T14:49:07.383Z,1.02
2022-08-11T14:51:59.249Z,1.25
2022-08-11T14:55:10.899Z,1.52
2022-08-11T14:57:59.477Z,1.10
2022-08-11T15:00:55.269Z,1.20
2022-08-11T15:04:04.463Z,1.30
2022-08-11T15:06:56.203Z,1.38
2022-08-11T15:12:55.681Z,1.30
2022-08-11T15:16:20.368Z,1.35
2022-08-11T15:25:09.627Z,1.20
2022-08-11T15:40:54.232Z,1.65
2022-08-11T15:44:07.434Z,1.25
2022-08-11T15:46:58.220Z,1.00
2022-08-11T15:50:27.402Z,1.55
2022-08-11T15:53:38.987Z,1.42
2022-08-11T15:56:29.634Z,1.10
2022-08-11T15:59:42.238Z,1.20
2022-08-11T16:02:51.514Z,1.33
2022-08-11T16:10:09.762Z,1.20
2022-08-11T16:13:06.420Z,1.15
2022-08-11T16:16:28.401Z,1.20
2022-08-11T16:19:40.065Z,1.00
2022-08-11T16:22:57.056Z,1.13
2022-08-11T16:27:09.502Z,1.38
2022-08-11T16:29:30.298Z,1.38
2022-08-11T16:32:23.480Z,1.60
2022-08-11T16:35:34.719Z,1.33
2022-08-11T16:38:35.749Z,1.38
2022-08-11T16:41:44.742Z,1.10
2022-08-11T16:45:13.107Z,1.58
2022-08-11T16:48:33.407Z,1.40
2022-08-11T16:51:20.989Z,1.63
2022-08-11T16:54:18.288Z,1.65
2022-08-11T17:05:27.837Z,1.42
2022-08-11T17:12:48.703Z,1.10
2022-08-11T17:15:59.864Z,1.35
2022-08-11T17:19:12.672Z,1.50
2022-08-11T17:25:09.279Z,1.50
2022-08-11T17:27:57.246Z,1.48
2022-08-11T17:31:18.509Z,1.52
2022-08-11T17:34:29.602Z,1.40
2022-08-11T17:37:20.024Z,1.35
2022-08-11T17:40:13.712Z,1.20
2022-08-11T17:43:20.064Z,1.45
2022-08-11T17:46:28.417Z,1.83
2022-08-11T17:49:19.945Z,1.70
2022-08-11T17:52:26.532Z,1.52
2022-08-11T17:55:52.079Z,1.33
2022-08-11T17:58:59.776Z,1.20
2022-08-11T18:01:49.804Z,1.35
2022-08-11T18:04:43.750Z,1.77
2022-08-11T18:07:50.209Z,1.90
2022-08-11T18:10:57.349Z,1.60
2022-08-11T18:14:06.500Z,1.60
2022-08-11T18:17:12.439Z,1.38
2022-08-11T18:20:17.963Z,1.80
2022-08-11T18:23:45.551Z,1.40
2022-08-11T18:26:52.555Z,1.88
2022-08-11T18:30:02.768Z,1.90
2022-08-11T18:33:44.776Z,3.15
2022-08-11T18:36:47.229Z,2.10
2022-08-11T18:40:01.023Z,1.70
2022-08-11T18:43:09.858Z,1.58
2022-08-11T18:46:24.586Z,1.58
2022-08-11T18:50:02.334Z,1.65
2022-08-11T18:53:05.529Z,2.10
2022-08-11T18:56:11.988Z,1.85
2022-08-11T18:59:19.564Z,1.50
2022-08-11T19:02:29.265Z,1.95
2022-08-11T19:06:05.896Z,2.15
2022-08-11T19:09:12.174Z,1.80
2022-08-11T19:12:20.427Z,2.10
2022-08-11T19:15:27.281Z,1.77
2022-08-11T19:18:38.686Z,2.15
2022-08-11T19:21:48.263Z,2.03
2022-08-11T19:24:57.433Z,2.60
2022-08-11T19:28:06.945Z,2.33
2022-08-11T19:31:14.505Z,1.95
2022-08-11T19:34:21.522Z,2.28
2022-08-11T19:37:28.168Z,1.63
2022-08-11T19:40:40.755Z,2.00
2022-08-11T19:43:49.256Z,1.98
2022-08-11T19:46:56.700Z,1.98
2022-08-11T19:50:04.243Z,1.60
2022-08-11T19:53:17.378Z,1.77
2022-08-11T19:56:27.162Z,1.77
2022-08-11T19:59:33.460Z,2.33
2022-08-11T20:02:39.301Z,1.98
2022-08-11T20:05:59.597Z,2.28
2022-08-11T20:09:14.621Z,1.98
2022-08-11T20:12:24.153Z,1.85
2022-08-11T20:15:35.076Z,1.58
2022-08-11T20:18:41.701Z,2.20
2022-08-11T20:21:47.847Z,2.58
2022-08-11T20:24:56.743Z,2.30
2022-08-11T20:28:06.252Z,2.17
2022-08-11T20:31:13.080Z,2.10
2022-08-11T20:34:26.476Z,2.75
2022-08-11T20:37:36.209Z,2.38
2022-08-11T20:40:46.020Z,2.25
2022-08-11T20:44:07.893Z,2.25
2022-08-11T20:47:15.826Z,2.75
2022-08-11T20:50:22.271Z,2.08
2022-08-11T20:53:31.087Z,2.28
2022-08-11T20:56:45.812Z,2.25
2022-08-11T21:03:36.044Z,2.22
2022-08-11T21:06:47.821Z,2.10
2022-08-11T21:10:01.003Z,1.98
2022-08-11T21:13:25.728Z,2.30
2022-08-11T21:16:47.526Z,2.15
2022-08-11T21:20:07.971Z,2.00
2022-08-11T21:23:27.512Z,2.20
2022-08-11T21:26:39.604Z,2.40
2022-08-11T21:29:51.001Z,2.28
2022-08-11T21:33:01.601Z,2.33
2022-08-11T21:36:08.218Z,2.20
2022-08-11T21:39:14.371Z,2.45
2022-08-11T21:42:24.713Z,2.10
2022-08-11T21:45:35.040Z,1.80
2022-08-11T21:48:43.792Z,2.28
2022-08-11T21:51:49.711Z,2.22
2022-08-11T21:54:57.456Z,2.10
2022-08-11T21:58:06.539Z,1.77
2022-08-11T22:01:14.101Z,2.00
2022-08-11T22:04:20.627Z,2.30
2022-08-11T22:07:27.666Z,2.30
2022-08-11T22:10:42.252Z,2.70
2022-08-11T22:14:07.604Z,2.92
2022-08-11T22:17:16.135Z,2.17
2022-08-11T22:20:25.589Z,2.30
2022-08-11T22:23:36.137Z,2.33
2022-08-11T22:26:47.607Z,2.33
2022-08-11T22:29:54.044Z,2.60
2022-08-11T22:33:00.923Z,2.10
2022-08-11T22:36:09.906Z,2.30
2022-08-11T22:39:18.819Z,2.28
2022-08-11T22:42:33.977Z,2.20
2022-08-11T22:45:40.510Z,2.40
2022-08-11T22:48:48.275Z,2.28
2022-08-11T22:51:57.101Z,1.95
2022-08-11T22:55:08.849Z,2.10
2022-08-11T22:58:19.181Z,2.92
2022-08-11T23:01:32.096Z,2.28
2022-08-11T23:04:38.581Z,2.33
2022-08-11T23:07:49.817Z,2.53
2022-08-11T23:10:57.646Z,2.88
2022-08-11T23:14:06.011Z,2.63
2022-08-11T23:17:12.420Z,2.30
2022-08-11T23:20:28.533Z,2.75
2022-08-11T23:23:47.516Z,2.45
2022-08-11T23:26:55.442Z,2.38
2022-08-11T23:30:05.961Z,2.30
2022-08-11T23:33:18.194Z,2.60
2022-08-11T23:36:36.165Z,2.60
2022-08-11T23:39:52.098Z,2.50
2022-08-11T23:43:00.267Z,2.53
2022-08-11T23:46:06.114Z,2.22
2022-08-11T23:49:23.527Z,2.20
2022-08-11T23:52:30.975Z,2.10
2022-08-11T23:55:37.866Z,2.22
2022-08-11T23:58:46.324Z,2.70
